Time;durP1;ratioP1;P1;durP2;ratioP2;P2;SDS_P1;SDS_P2;PMS_P1;PMS_P2;Temp;Humidity;BMP_temperature;BMP_pressure;BME280_temperature;BME280_humidity;BME280_pressure;Samples;Min_cycle;Max_cycle;Signal;HPM_P1;HPM_P2
2022/08/15 00:00:29;;;;;;;8.27;5.65;;;23.90;82.90;;;;;;4249984;27;20525;-83
2022/08/15 00:02:30;;;;;;;8.40;5.90;;;23.80;83.00;;;;;;4249752;27;20095;-83
2022/08/15 00:04:31;;;;;;;7.85;5.53;;;23.80;83.00;;;;;;4249845;27;20039;-83
2022/08/15 00:06:37;;;;;;;7.93;6.05;;;23.80;83.00;;;;;;4249893;27;20474;-82
2022/08/15 00:08:44;;;;;;;9.30;5.18;;;23.80;83.00;;;;;;4231134;28;20051;-83
2022/08/15 00:10:45;;;;;;;10.15;6.35;;;23.70;83.00;;;;;;4231404;28;20118;-83
2022/08/15 00:12:47;;;;;;;6.82;5.38;;;23.70;83.20;;;;;;4231058;28;20400;-82
2022/08/15 00:14:49;;;;;;;6.97;5.35;;;23.70;83.20;;;;;;4248712;27;20035;-83
2022/08/15 00:16:51;;;;;;;9.75;5.50;;;23.70;83.40;;;;;;4249519;27;20466;-82
2022/08/15 00:18:52;;;;;;;10.70;6.25;;;23.70;83.50;;;;;;4249445;27;20043;-82
2022/08/15 00:20:54;;;;;;;9.43;5.60;;;23.60;83.50;;;;;;4245410;27;20368;-83
2022/08/15 00:22:55;;;;;;;7.63;5.28;;;23.60;83.60;;;;;;4246797;27;20058;-83
2022/08/15 00:24:57;;;;;;;8.57;5.25;;;23.60;83.90;;;;;;4266744;27;20039;-83
2022/08/15 00:27:04;;;;;;;7.90;5.35;;;23.60;84.00;;;;;;4266267;27;20046;-83
2022/08/15 00:29:06;;;;;;;7.35;5.63;;;23.60;84.40;;;;;;4266657;27;20068;-83
2022/08/15 00:31:10;;;;;;;10.27;6.47;;;23.50;84.30;;;;;;4266655;27;20045;-83
2022/08/15 00:33:12;;;;;;;6.97;5.15;;;23.50;84.60;;;;;;4248239;27;20446;-83
2022/08/15 00:37:43;;;;;;;6.60;5.22;;;23.50;85.40;;;;;;4217624;28;20047;-83
2022/08/15 00:39:45;;;;;;;9.55;5.85;;;23.40;85.00;;;;;;4214017;28;20044;-83
2022/08/15 00:41:48;;;;;;;7.82;5.68;;;23.40;85.10;;;;;;4249306;27;20043;-82
2022/08/15 00:43:57;;;;;;;10.13;5.90;;;23.40;85.30;;;;;;4249305;27;20489;-83
2022/08/15 00:45:57;;;;;;;9.27;6.45;;;23.30;85.30;;;;;;4249232;27;20047;-83
2022/08/15 00:50:19;;;;;;;7.32;6.15;;;23.30;85.50;;;;;;4231105;28;20059;-82
2022/08/15 00:52:24;;;;;;;9.00;5.40;;;23.30;85.60;;;;;;4249013;27;20082;-83
2022/08/15 00:54:44;;;;;;;9.13;6.28;;;23.20;85.60;;;;;;4249110;27;20039;-83
2022/08/15 00:56:49;;;;;;;9.30;6.00;;;23.20;86.30;;;;;;4249140;27;20506;-83
2022/08/15 00:58:51;;;;;;;9.98;6.15;;;23.20;86.00;;;;;;4229973;28;20036;-83
2022/08/15 01:00:52;;;;;;;8.50;6.47;;;23.20;86.00;;;;;;4248979;27;20050;-83
2022/08/15 01:02:58;;;;;;;7.75;5.82;;;23.20;86.00;;;;;;4249001;27;20111;-83
2022/08/15 01:05:02;;;;;;;11.15;6.35;;;23.10;86.10;;;;;;4252762;27;20083;-83
2022/08/15 01:07:04;;;;;;;10.30;6.50;;;23.10;86.10;;;;;;4247431;27;20051;-83
2022/08/15 01:09:07;;;;;;;7.72;6.32;;;23.10;86.10;;;;;;4265435;27;20489;-83
2022/08/15 01:11:24;;;;;;;9.98;6.25;;;23.10;86.30;;;;;;4247684;27;20066;-83
2022/08/15 01:13:25;;;;;;;9.88;6.28;;;23.10;86.80;;;;;;4266256;27;20380;-83
2022/08/15 01:15:26;;;;;;;8.68;6.47;;;23.00;86.60;;;;;;4266165;27;20035;-83
2022/08/15 01:17:29;;;;;;;10.10;6.65;;;23.00;86.60;;;;;;4265924;27;20080;-83
2022/08/15 01:19:37;;;;;;;7.88;5.97;;;23.00;87.10;;;;;;4247606;27;20082;-83
2022/08/15 01:22:13;;;;;;;11.17;7.03;;;22.90;87.10;;;;;;4253182;27;20160;-83
2022/08/15 01:24:29;;;;;;;10.70;6.72;;;22.80;87.60;;;;;;4230151;28;20177;-83
2022/08/15 01:26:31;;;;;;;10.27;6.53;;;22.80;87.10;;;;;;4248700;27;20574;-83
2022/08/15 01:28:39;;;;;;;16.50;7.55;;;22.80;87.20;;;;;;4230252;28;20415;-83
2022/08/15 01:30:47;;;;;;;9.98;6.88;;;22.80;88.00;;;;;;4265568;27;20054;-83
2022/08/15 01:32:48;;;;;;;10.50;7.00;;;22.70;87.40;;;;;;4246519;27;20099;-83
2022/08/15 01:34:49;;;;;;;9.32;6.97;;;22.70;87.40;;;;;;4265340;27;20050;-83
2022/08/15 01:36:50;;;;;;;17.67;7.20;;;22.70;87.50;;;;;;4257721;27;20047;-83
2022/08/15 01:38:58;;;;;;;11.50;7.60;;;22.70;87.60;;;;;;4248095;27;20049;-83
2022/08/15 01:41:23;;;;;;;11.50;7.40;;;22.70;88.10;;;;;;4248208;27;20050;-83
2022/08/15 01:43:28;;;;;;;9.30;6.88;;;22.60;88.20;;;;;;4230155;28;20104;-83
2022/08/15 01:45:32;;;;;;;7.75;6.50;;;22.60;87.90;;;;;;4248136;27;20089;-83
2022/08/15 01:48:00;;;;;;;12.20;7.75;;;22.60;88.10;;;;;;4230091;28;20048;-84
2022/08/15 01:50:14;;;;;;;13.27;8.07;;;22.50;88.50;;;;;;4229890;28;20055;-83
2022/08/15 01:52:19;;;;;;;8.30;6.85;;;22.50;88.20;;;;;;4247797;27;20035;-83
2022/08/15 01:54:21;;;;;;;11.20;7.85;;;22.50;88.30;;;;;;4236500;27;20035;-83
2022/08/15 01:56:32;;;;;;;11.60;6.72;;;22.50;88.30;;;;;;4263274;27;20030;-83
2022/08/15 01:58:37;;;;;;;10.10;7.05;;;22.50;88.60;;;;;;4246093;27;20063;-84
2022/08/15 02:00:47;;;;;;;10.82;6.38;;;22.50;88.50;;;;;;4246462;27;20054;-84
2022/08/15 02:02:48;;;;;;;11.43;6.85;;;22.50;88.40;;;;;;4265069;27;20106;-83
2022/08/15 02:04:49;;;;;;;11.52;7.13;;;22.60;88.40;;;;;;4246500;27;20117;-84
2022/08/15 02:06:51;;;;;;;10.93;6.78;;;22.50;88.40;;;;;;4265101;27;20045;-83
2022/08/15 02:08:52;;;;;;;14.98;7.53;;;22.60;88.60;;;;;;4246758;27;20057;-84
2022/08/15 02:10:53;;;;;;;10.68;6.90;;;22.60;88.50;;;;;;4264290;27;20034;-83
2022/08/15 02:12:53;;;;;;;10.77;7.57;;;22.60;88.50;;;;;;4264979;27;20209;-84
2022/08/15 02:14:55;;;;;;;12.23;7.82;;;22.60;88.60;;;;;;4248718;27;20072;-83
2022/08/15 02:16:56;;;;;;;11.55;7.65;;;22.60;88.90;;;;;;4247754;27;20044;-83
2022/08/15 02:18:59;;;;;;;11.48;7.55;;;22.50;88.80;;;;;;4229225;28;20048;-83
2022/08/15 02:20:59;;;;;;;12.32;7.25;;;22.50;89.00;;;;;;4229456;28;20082;-82
2022/08/15 02:23:02;;;;;;;9.95;7.03;;;22.50;89.20;;;;;;4228752;28;20519;-83
2022/08/15 02:25:05;;;;;;;10.13;7.22;;;22.50;89.30;;;;;;4247432;28;20085;-83
2022/08/15 02:27:06;;;;;;;8.70;6.88;;;22.40;89.40;;;;;;4229121;28;20055;-83
2022/08/15 02:29:07;;;;;;;10.85;7.60;;;22.40;89.40;;;;;;4247319;28;20039;-83
2022/08/15 02:31:11;;;;;;;12.95;7.70;;;22.40;89.60;;;;;;4247660;28;20639;-83
2022/08/15 02:33:15;;;;;;;11.65;8.43;;;22.40;89.80;;;;;;4229290;28;20048;-83
2022/08/15 02:35:17;;;;;;;11.20;7.65;;;22.40;89.80;;;;;;4247384;28;20040;-82
2022/08/15 02:37:21;;;;;;;13.45;8.40;;;22.40;90.00;;;;;;4247172;28;20055;-83
2022/08/15 02:39:22;;;;;;;10.20;7.78;;;22.30;90.10;;;;;;4260192;27;20089;-83
2022/08/15 02:41:29;;;;;;;10.32;7.50;;;22.30;90.10;;;;;;4246101;28;20431;-83
2022/08/15 02:43:30;;;;;;;12.10;6.90;;;22.30;90.20;;;;;;4246264;28;20561;-82
2022/08/15 02:45:37;;;;;;;11.95;8.10;;;22.30;90.20;;;;;;4246237;27;20050;-82
2022/08/15 02:47:39;;;;;;;13.18;7.93;;;22.20;90.30;;;;;;4249367;27;20035;-82
2022/08/15 02:49:40;;;;;;;15.35;8.38;;;22.30;90.50;;;;;;4249724;27;20395;-83
2022/08/15 02:51:42;;;;;;;12.90;8.52;;;22.20;90.50;;;;;;4268046;27;20049;-83
2022/08/15 02:53:47;;;;;;;11.32;8.63;;;22.20;90.50;;;;;;4249579;27;20088;-83
2022/08/15 02:55:48;;;;;;;11.43;8.15;;;22.20;90.60;;;;;;4249294;27;20051;-83
2022/08/15 02:57:49;;;;;;;10.85;7.97;;;22.20;90.60;;;;;;4267943;27;20042;-84
2022/08/15 02:59:50;;;;;;;13.00;7.63;;;22.20;90.60;;;;;;4267943;27;20153;-83
2022/08/15 03:01:51;;;;;;;11.45;8.40;;;22.20;90.70;;;;;;4249848;27;20035;-82
2022/08/15 03:03:53;;;;;;;11.40;7.50;;;22.20;90.70;;;;;;4267646;27;20042;-82
2022/08/15 03:05:54;;;;;;;12.98;8.48;;;22.20;90.70;;;;;;4249264;27;20054;-82
2022/08/15 03:07:55;;;;;;;12.13;7.80;;;22.20;90.70;;;;;;4246626;27;20448;-83
2022/08/15 03:09:58;;;;;;;10.32;7.57;;;22.20;90.70;;;;;;4250681;27;20100;-82
2022/08/15 03:11:59;;;;;;;11.23;7.90;;;22.30;90.70;;;;;;4250755;27;20035;-82
2022/08/15 03:14:00;;;;;;;9.10;7.20;;;22.20;90.80;;;;;;4250561;27;20043;-83
2022/08/15 03:16:04;;;;;;;11.30;7.28;;;22.30;90.80;;;;;;4232086;27;20533;-83
2022/08/15 03:18:05;;;;;;;11.00;7.68;;;22.30;90.80;;;;;;4215389;28;20049;-83
2022/08/15 03:20:08;;;;;;;11.82;7.35;;;22.30;90.90;;;;;;4250406;27;20551;-83
2022/08/15 03:22:09;;;;;;;11.27;7.43;;;22.30;91.00;;;;;;4214944;28;20040;-83
2022/08/15 03:24:15;;;;;;;10.43;7.18;;;22.20;91.00;;;;;;4250408;27;20424;-82
2022/08/15 03:26:21;;;;;;;11.38;7.82;;;22.30;91.10;;;;;;4250160;27;20053;-81
2022/08/15 03:28:25;;;;;;;12.70;7.93;;;22.30;91.20;;;;;;4250485;27;20114;-82
2022/08/15 03:30:26;;;;;;;10.63;7.63;;;22.20;91.20;;;;;;4250013;27;20051;-82
2022/08/15 03:32:26;;;;;;;10.88;7.65;;;22.30;91.10;;;;;;4232176;28;20562;-83
2022/08/15 03:34:27;;;;;;;10.02;7.40;;;22.20;91.20;;;;;;4231995;28;20126;-82
2022/08/15 03:36:27;;;;;;;10.23;7.68;;;22.20;91.30;;;;;;4232146;28;20055;-83
2022/08/15 03:38:28;;;;;;;13.50;7.22;;;22.10;91.40;;;;;;4250444;27;20410;-82
2022/08/15 03:40:30;;;;;;;11.02;7.68;;;22.10;91.50;;;;;;4250204;27;20082;-82
2022/08/15 03:42:32;;;;;;;11.40;7.43;;;22.10;91.50;;;;;;4249768;27;20047;-82
2022/08/15 03:44:33;;;;;;;12.32;8.15;;;22.10;91.50;;;;;;4250065;27;20051;-82
2022/08/15 03:46:34;;;;;;;10.18;7.72;;;22.10;91.60;;;;;;4250088;27;20039;-83
2022/08/15 03:48:42;;;;;;;10.18;7.32;;;22.10;91.80;;;;;;4231745;28;20048;-83
2022/08/15 03:50:43;;;;;;;10.38;7.68;;;22.10;91.90;;;;;;4232036;28;20046;-82
2022/08/15 03:52:51;;;;;;;12.77;7.90;;;22.00;91.90;;;;;;4231385;28;20456;-83
2022/08/15 03:54:58;;;;;;;9.43;7.18;;;22.00;92.00;;;;;;4250105;27;20101;-83
2022/08/15 03:56:59;;;;;;;15.52;7.88;;;22.00;91.90;;;;;;4231259;28;20443;-83
2022/08/15 03:59:00;;;;;;;9.57;7.32;;;22.00;92.00;;;;;;4249823;27;20039;-83
2022/08/15 04:01:03;;;;;;;11.25;7.70;;;21.90;92.00;;;;;;4249650;27;20067;-83
2022/08/15 04:03:23;;;;;;;14.52;8.32;;;21.90;92.10;;;;;;4249060;27;20065;-82
2022/08/15 04:05:23;;;;;;;15.80;7.88;;;21.90;92.40;;;;;;4214425;28;20577;-83
2022/08/15 04:07:24;;;;;;;9.85;7.30;;;21.90;92.30;;;;;;4233102;28;20043;-82
2022/08/15 04:09:26;;;;;;;10.18;7.30;;;21.80;92.30;;;;;;4232329;27;20564;-83
2022/08/15 04:11:30;;;;;;;10.98;8.20;;;21.80;92.40;;;;;;4249728;27;20092;-82
2022/08/15 04:13:31;;;;;;;11.23;8.02;;;21.80;92.50;;;;;;4249734;27;20043;-82
2022/08/15 04:15:32;;;;;;;15.95;7.88;;;21.80;92.50;;;;;;4249248;27;20088;-83
2022/08/15 04:17:34;;;;;;;10.20;7.70;;;21.80;92.50;;;;;;4249960;27;20043;-83
2022/08/15 04:19:35;;;;;;;12.75;7.93;;;21.70;92.50;;;;;;4249359;27;20054;-83
2022/08/15 04:21:36;;;;;;;13.75;8.05;;;21.70;92.60;;;;;;4249447;27;20083;-84
2022/08/15 04:23:40;;;;;;;18.30;9.45;;;21.70;92.70;;;;;;4249034;27;20050;-82
2022/08/15 04:25:42;;;;;;;14.02;8.60;;;21.70;92.80;;;;;;4230952;28;20090;-82
2022/08/15 04:27:43;;;;;;;12.25;9.27;;;21.60;92.90;;;;;;4249408;27;20122;-82
2022/08/15 04:29:43;;;;;;;15.88;9.65;;;21.50;92.90;;;;;;4249758;27;20399;-84
2022/08/15 04:31:45;;;;;;;15.18;9.82;;;21.40;93.00;;;;;;4249019;27;20046;-83
2022/08/15 04:33:48;;;;;;;11.30;8.93;;;21.40;93.20;;;;;;4248452;27;20043;-82
2022/08/15 04:36:09;;;;;;;14.10;9.48;;;21.40;93.30;;;;;;4249365;27;20043;-82
2022/08/15 04:38:10;;;;;;;14.48;9.27;;;21.40;93.50;;;;;;4233496;27;20768;-82
2022/08/15 04:40:15;;;;;;;13.25;9.40;;;21.30;93.30;;;;;;4266077;27;20046;-83
2022/08/15 04:42:16;;;;;;;13.50;9.60;;;21.30;93.40;;;;;;4247985;27;20039;-82
2022/08/15 04:44:17;;;;;;;11.55;8.95;;;21.30;93.40;;;;;;4247232;27;20059;-82
2022/08/15 04:46:19;;;;;;;12.35;9.05;;;21.30;93.40;;;;;;4265915;27;20054;-83
2022/08/15 04:48:20;;;;;;;14.63;9.25;;;21.40;93.50;;;;;;4247609;27;20054;-81
2022/08/15 04:50:21;;;;;;;12.02;8.77;;;21.40;93.50;;;;;;4266302;27;20045;-83
2022/08/15 04:52:22;;;;;;;16.95;9.30;;;21.40;93.80;;;;;;4266261;27;20042;-81
2022/08/15 04:54:23;;;;;;;15.25;8.95;;;21.30;93.50;;;;;;4247981;27;20055;-82
2022/08/15 04:56:26;;;;;;;13.30;9.07;;;21.40;93.40;;;;;;4265688;27;20095;-82
2022/08/15 04:58:28;;;;;;;12.48;9.07;;;21.40;93.40;;;;;;4247603;27;20039;-83
2022/08/15 05:00:31;;;;;;;14.18;9.77;;;21.40;93.50;;;;;;4266198;27;20039;-82
2022/08/15 05:02:32;;;;;;;15.18;10.10;;;21.40;93.50;;;;;;4248248;27;20051;-83
2022/08/15 05:04:34;;;;;;;15.40;9.65;;;21.40;93.50;;;;;;4230085;28;20082;-82
2022/08/15 05:06:35;;;;;;;16.38;9.93;;;21.40;93.50;;;;;;4247344;27;20051;-82
2022/08/15 05:08:38;;;;;;;13.27;9.32;;;21.40;93.50;;;;;;4259074;27;20145;-82
2022/08/15 05:10:39;;;;;;;13.27;9.63;;;21.50;93.60;;;;;;4248652;27;20440;-82
2022/08/15 05:12:40;;;;;;;13.65;10.07;;;21.50;93.60;;;;;;4247991;27;20070;-83
2022/08/15 05:14:41;;;;;;;16.55;9.95;;;21.40;93.60;;;;;;4213846;28;20055;-83
2022/08/15 05:16:41;;;;;;;14.38;10.30;;;21.50;93.70;;;;;;4248701;27;20043;-84
2022/08/15 05:18:43;;;;;;;12.95;10.27;;;21.50;93.80;;;;;;4248331;27;20118;-83
2022/08/15 05:20:44;;;;;;;15.07;9.65;;;21.50;93.80;;;;;;4248332;27;20154;-83
2022/08/15 05:22:52;;;;;;;14.63;8.65;;;21.50;93.70;;;;;;4248104;27;20139;-83
2022/08/15 05:24:53;;;;;;;11.95;8.85;;;21.50;93.80;;;;;;4247339;27;20043;-83
2022/08/15 05:26:53;;;;;;;17.00;9.23;;;21.50;93.80;;;;;;4247938;27;20376;-83
2022/08/15 05:28:54;;;;;;;16.00;9.98;;;21.60;93.80;;;;;;4247884;27;20042;-83
2022/08/15 05:30:56;;;;;;;14.15;9.48;;;21.60;93.90;;;;;;4246511;27;20106;-83
2022/08/15 05:33:11;;;;;;;13.88;8.23;;;21.60;93.90;;;;;;4229234;28;20051;-83
2022/08/15 05:35:11;;;;;;;13.80;9.05;;;21.70;94.10;;;;;;4260446;27;20049;-83
2022/08/15 05:37:13;;;;;;;12.30;9.05;;;21.70;94.00;;;;;;4265012;27;20402;-83
2022/08/15 05:39:23;;;;;;;16.40;8.88;;;21.70;94.10;;;;;;4246705;27;20082;-83
2022/08/15 05:41:33;;;;;;;18.02;9.98;;;21.70;94.20;;;;;;4246478;27;20202;-83
2022/08/15 05:43:41;;;;;;;15.25;9.90;;;21.70;94.10;;;;;;4264641;27;20486;-83
2022/08/15 05:45:52;;;;;;;11.87;8.57;;;21.70;94.10;;;;;;4229371;28;20085;-82
2022/08/15 05:48:14;;;;;;;14.00;9.20;;;21.70;94.30;;;;;;4247523;27;20050;-82
2022/08/15 05:50:43;;;;;;;12.82;8.75;;;21.80;94.50;;;;;;4234667;27;20565;-82
2022/08/15 05:53:05;;;;;;;12.02;9.25;;;21.80;94.20;;;;;;4253282;27;20229;-83
2022/08/15 05:55:34;;;;;;;15.45;10.38;;;21.80;94.20;;;;;;4251341;27;20122;-83
2022/08/15 05:58:01;;;;;;;13.60;9.13;;;21.80;94.40;;;;;;4250593;27;20115;-83
2022/08/15 06:00:08;;;;;;;13.68;9.27;;;21.80;94.30;;;;;;4264573;27;20050;-83
2022/08/15 06:02:27;;;;;;;11.27;9.10;;;21.90;94.10;;;;;;4264632;27;20088;-83
2022/08/15 06:04:43;;;;;;;13.88;8.82;;;22.00;94.10;;;;;;4245601;27;20051;-83
2022/08/15 06:06:47;;;;;;;13.52;9.63;;;22.00;94.10;;;;;;4228943;28;20055;-83
2022/08/15 06:08:56;;;;;;;15.10;11.05;;;22.00;94.10;;;;;;4264740;27;20049;-83
2022/08/15 06:11:13;;;;;;;13.45;9.68;;;22.00;94.10;;;;;;4247843;27;20035;-82
2022/08/15 06:13:23;;;;;;;21.00;9.57;;;22.00;93.90;;;;;;4229611;28;20114;-82
2022/08/15 06:15:33;;;;;;;14.18;9.18;;;22.00;94.10;;;;;;4229015;28;20084;-82
2022/08/15 06:17:40;;;;;;;16.45;10.13;;;22.10;93.90;;;;;;4247659;27;20160;-82
2022/08/15 06:19:46;;;;;;;13.02;9.07;;;22.10;94.00;;;;;;4247780;27;20069;-83
2022/08/15 06:22:05;;;;;;;20.45;10.70;;;22.30;94.00;;;;;;4247748;27;20065;-84
2022/08/15 06:24:34;;;;;;;14.05;9.80;;;22.10;93.70;;;;;;4228817;28;20054;-83
2022/08/15 06:27:01;;;;;;;12.73;9.10;;;22.20;93.70;;;;;;4229247;28;20055;-83
2022/08/15 06:29:20;;;;;;;13.98;9.90;;;22.20;93.70;;;;;;4244813;28;20050;-83
2022/08/15 06:31:33;;;;;;;14.73;9.52;;;22.30;93.60;;;;;;4264628;27;20045;-83
2022/08/15 06:33:53;;;;;;;15.57;10.40;;;22.30;93.60;;;;;;4246396;28;20103;-83
2022/08/15 06:36:04;;;;;;;15.40;10.48;;;22.40;93.30;;;;;;4246336;28;20043;-83
2022/08/15 06:38:21;;;;;;;14.52;10.18;;;22.40;93.20;;;;;;4264584;27;20042;-83
2022/08/15 06:40:43;;;;;;;16.58;10.93;;;22.40;93.10;;;;;;4263991;27;20054;-83
2022/08/15 06:42:45;;;;;;;15.15;10.27;;;22.50;93.10;;;;;;4264630;27;20138;-83
2022/08/15 06:44:49;;;;;;;13.45;9.73;;;22.60;92.90;;;;;;4245971;28;20043;-83
2022/08/15 06:46:56;;;;;;;14.50;10.23;;;22.50;92.90;;;;;;4264567;27;20057;-83
2022/08/15 06:49:03;;;;;;;16.77;10.88;;;22.50;92.90;;;;;;4246162;28;20049;-83
2022/08/15 06:51:06;;;;;;;14.77;9.63;;;22.60;92.90;;;;;;4253788;27;20090;-82
2022/08/15 06:53:38;;;;;;;15.85;11.25;;;22.60;93.00;;;;;;4246797;28;20043;-82
2022/08/15 06:56:11;;;;;;;16.30;11.20;;;22.60;93.10;;;;;;4246069;28;20055;-82
2022/08/15 06:58:19;;;;;;;15.23;9.52;;;22.70;93.00;;;;;;4246326;27;20093;-83
2022/08/15 07:00:49;;;;;;;19.63;10.87;;;22.70;92.90;;;;;;4229096;28;20500;-83
2022/08/15 07:02:53;;;;;;;16.48;11.32;;;22.80;93.00;;;;;;4246922;28;20055;-83
2022/08/15 07:05:05;;;;;;;14.98;10.23;;;22.80;92.80;;;;;;4228670;28;20556;-83
2022/08/15 07:07:12;;;;;;;16.35;10.32;;;23.00;92.70;;;;;;4228910;28;20495;-83
2022/08/15 07:09:15;;;;;;;12.95;9.95;;;23.00;92.60;;;;;;4228797;28;20039;-83
2022/08/15 07:11:34;;;;;;;18.08;11.02;;;23.00;92.50;;;;;;4257219;27;20043;-84
2022/08/15 07:13:46;;;;;;;17.40;9.87;;;23.00;92.50;;;;;;4246523;28;20109;-84
2022/08/15 07:16:02;;;;;;;14.68;10.85;;;23.00;92.50;;;;;;4263894;27;20760;-83
2022/08/15 07:18:12;;;;;;;19.80;10.18;;;23.00;92.40;;;;;;4264118;27;20042;-83
2022/08/15 07:20:13;;;;;;;14.70;10.73;;;23.00;92.50;;;;;;4264624;27;20046;-84
2022/08/15 07:22:14;;;;;;;18.13;10.50;;;23.10;92.40;;;;;;4264835;27;20122;-83
2022/08/15 07:24:18;;;;;;;16.05;10.75;;;23.20;92.30;;;;;;4264185;27;20042;-83
2022/08/15 07:26:18;;;;;;;14.55;9.68;;;23.20;92.30;;;;;;4245722;28;20054;-83
2022/08/15 07:28:26;;;;;;;15.75;9.85;;;23.30;92.30;;;;;;4264177;27;20398;-82
2022/08/15 07:30:44;;;;;;;16.92;9.57;;;23.40;92.40;;;;;;4261463;27;20143;-83
2022/08/15 07:32:54;;;;;;;13.60;9.82;;;23.50;92.50;;;;;;4230855;27;20519;-84
2022/08/15 07:35:09;;;;;;;17.35;10.48;;;23.60;92.30;;;;;;4231759;28;20039;-83
2022/08/15 07:37:17;;;;;;;16.52;10.95;;;23.80;92.10;;;;;;4250317;27;20043;-84
2022/08/15 07:39:25;;;;;;;13.60;9.73;;;23.80;91.90;;;;;;4249627;27;20051;-83
2022/08/15 07:41:38;;;;;;;16.23;11.38;;;23.80;91.90;;;;;;4250325;27;20039;-83
2022/08/15 07:43:39;;;;;;;17.90;10.10;;;23.90;91.80;;;;;;4215266;28;20063;-83
2022/08/15 07:45:41;;;;;;;14.98;9.93;;;23.90;91.80;;;;;;4249531;27;20051;-83
2022/08/15 07:47:55;;;;;;;11.63;9.15;;;24.10;91.90;;;;;;4249860;27;20118;-83
2022/08/15 07:50:11;;;;;;;12.32;8.48;;;24.30;92.10;;;;;;4250023;27;20479;-83
2022/08/15 07:52:15;;;;;;;12.77;8.98;;;24.60;91.70;;;;;;4262175;27;20046;-82
2022/08/15 07:54:26;;;;;;;13.20;8.20;;;24.90;91.40;;;;;;4267104;27;20123;-83
2022/08/15 07:56:31;;;;;;;14.77;8.95;;;25.00;91.00;;;;;;4248666;27;20035;-82
2022/08/15 07:58:34;;;;;;;14.15;7.55;;;25.20;90.70;;;;;;4266917;27;20043;-83
2022/08/15 08:00:35;;;;;;;12.40;8.35;;;25.50;90.50;;;;;;4266732;27;20490;-82
2022/08/15 08:02:57;;;;;;;13.18;7.22;;;25.70;90.20;;;;;;4266725;27;20098;-82
2022/08/15 08:05:00;;;;;;;12.82;6.63;;;26.00;90.00;;;;;;4266440;27;20045;-83
2022/08/15 08:07:18;;;;;;;13.32;7.72;;;26.10;89.30;;;;;;4248307;27;20058;-83
2022/08/15 08:09:30;;;;;;;11.93;6.68;;;26.10;87.80;;;;;;4267048;27;20551;-83
2022/08/15 08:11:39;;;;;;;15.45;7.70;;;26.30;87.00;;;;;;4261302;27;20050;-84
2022/08/15 08:14:07;;;;;;;10.80;6.80;;;26.50;86.40;;;;;;4230774;28;20048;-83
2022/08/15 08:16:20;;;;;;;15.32;7.50;;;26.50;85.20;;;;;;4249936;27;20057;-83
2022/08/15 08:18:42;;;;;;;13.20;6.03;;;26.60;84.60;;;;;;4214388;28;20271;-82
2022/08/15 08:21:01;;;;;;;10.65;6.85;;;26.70;85.20;;;;;;4249396;27;20047;-83
2022/08/15 08:23:12;;;;;;;13.93;7.10;;;27.00;84.30;;;;;;4231176;28;20051;-84
2022/08/15 08:25:31;;;;;;;10.85;6.45;;;27.40;84.50;;;;;;4230624;28;20858;-83
2022/08/15 08:27:58;;;;;;;13.45;6.25;;;27.80;83.10;;;;;;4248611;27;20510;-83
2022/08/15 08:30:09;;;;;;;9.30;6.00;;;28.10;82.30;;;;;;4210002;27;20055;-83
2022/08/15 08:32:20;;;;;;;9.82;5.07;;;28.30;79.00;;;;;;4239607;27;20172;-83
2022/08/15 08:34:31;;;;;;;7.35;5.00;;;28.50;79.10;;;;;;4248091;27;20058;-84
2022/08/15 08:36:55;;;;;;;11.23;5.45;;;28.70;78.20;;;;;;4266444;27;20046;-83
2022/08/15 08:39:21;;;;;;;9.88;6.32;;;28.70;76.30;;;;;;4266005;27;20054;-83
2022/08/15 08:41:37;;;;;;;12.73;6.35;;;28.60;76.60;;;;;;4248026;27;20129;-83
2022/08/15 08:43:51;;;;;;;9.45;5.60;;;28.50;76.70;;;;;;4246704;27;20046;-83
2022/08/15 08:46:03;;;;;;;8.68;5.88;;;28.30;75.80;;;;;;4255215;27;20063;-83
2022/08/15 08:48:46;;;;;;;8.32;5.38;;;28.10;75.50;;;;;;4259154;27;20057;-83
2022/08/15 08:51:06;;;;;;;6.95;4.93;;;27.80;74.70;;;;;;4249138;27;20461;-83
2022/08/15 08:53:48;;;;;;;6.55;4.60;;;27.80;74.90;;;;;;4249187;27;20107;-83
2022/08/15 08:55:54;;;;;;;7.20;5.00;;;27.80;75.10;;;;;;4248880;27;20458;-83
2022/08/15 08:58:09;;;;;;;10.65;5.63;;;27.90;75.60;;;;;;4248933;27;20333;-83
2022/08/15 09:00:17;;;;;;;8.95;4.97;;;28.00;75.10;;;;;;4248958;27;20043;-83
2022/08/15 09:02:27;;;;;;;8.50;5.35;;;27.90;74.50;;;;;;4230530;28;20055;-83
2022/08/15 09:04:46;;;;;;;7.53;4.85;;;27.80;72.50;;;;;;4249095;27;20043;-83
2022/08/15 09:06:49;;;;;;;6.38;4.80;;;27.70;72.70;;;;;;4230584;28;20535;-83
2022/08/15 09:08:56;;;;;;;10.52;5.38;;;27.70;73.30;;;;;;4248662;27;20501;-82
2022/08/15 09:11:25;;;;;;;5.80;4.70;;;27.80;72.80;;;;;;4248702;27;20118;-82
2022/08/15 09:13:35;;;;;;;6.00;4.22;;;27.90;72.90;;;;;;4213257;28;20058;-83
2022/08/15 09:15:42;;;;;;;9.05;4.85;;;28.00;72.80;;;;;;4230624;28;20055;-83
2022/08/15 09:17:49;;;;;;;9.10;5.53;;;28.20;72.10;;;;;;4230389;28;20463;-83
2022/08/15 09:19:55;;;;;;;8.73;4.63;;;28.20;71.30;;;;;;4248252;27;20047;-83
2022/08/15 09:21:56;;;;;;;11.25;4.90;;;28.30;71.20;;;;;;4230382;28;20062;-84
2022/08/15 09:23:59;;;;;;;9.32;5.03;;;28.30;70.50;;;;;;4248537;27;20053;-83
2022/08/15 09:26:19;;;;;;;6.55;4.80;;;28.60;70.20;;;;;;4230208;28;20066;-83
2022/08/15 09:28:35;;;;;;;8.25;4.63;;;28.70;68.90;;;;;;4213668;28;20054;-83
2022/08/15 09:30:39;;;;;;;6.68;5.00;;;29.00;68.70;;;;;;4240315;27;20050;-83
2022/08/15 09:33:08;;;;;;;5.93;4.80;;;29.30;68.70;;;;;;4265433;27;20050;-83
2022/08/15 09:35:12;;;;;;;;;;;29.60;66.60;;;;;;4266159;27;20039;-83
2022/08/15 09:37:50;;;;;;;8.48;4.50;;;29.80;66.20;;;;;;4266026;27;19919;-82
2022/08/15 09:40:12;;;;;;;5.93;3.83;;;29.80;63.80;;;;;;4230261;28;20043;-83
2022/08/15 09:42:19;;;;;;;4.95;3.78;;;29.60;65.10;;;;;;4266003;27;20100;-83
2022/08/15 09:44:27;;;;;;;6.32;3.90;;;29.50;66.30;;;;;;4246855;27;20077;-83
2022/08/15 09:46:35;;;;;;;12.57;4.38;;;29.50;67.60;;;;;;4266314;27;20049;-83
2022/08/15 09:49:08;;;;;;;7.03;4.25;;;29.70;66.40;;;;;;4247407;27;20055;-84
2022/08/15 09:51:29;;;;;;;6.78;4.32;;;29.80;63.70;;;;;;4247560;27;20047;-84
2022/08/15 09:54:06;;;;;;;6.93;4.03;;;29.80;64.80;;;;;;4265804;27;20420;-84
2022/08/15 09:56:11;;;;;;;8.40;4.22;;;29.80;64.50;;;;;;4249913;27;20043;-83
2022/08/15 09:58:20;;;;;;;4.70;3.50;;;29.70;63.30;;;;;;4248083;27;20088;-83
2022/08/15 10:00:52;;;;;;;4.35;3.15;;;29.70;62.80;;;;;;4229755;28;20109;-83
2022/08/15 10:03:05;;;;;;;4.85;3.35;;;29.90;61.90;;;;;;4229625;28;20051;-84
2022/08/15 10:05:27;;;;;;;4.85;2.97;;;30.00;62.40;;;;;;4248228;27;20145;-84
2022/08/15 10:07:58;;;;;;;7.25;3.35;;;30.10;60.40;;;;;;4247198;27;20114;-84
2022/08/15 10:09:59;;;;;;;6.00;3.80;;;30.30;60.50;;;;;;4261614;27;20055;-84
2022/08/15 10:12:06;;;;;;;5.68;3.83;;;30.40;61.60;;;;;;4263525;27;20046;-84
2022/08/15 10:14:22;;;;;;;6.30;3.78;;;30.40;60.60;;;;;;4247829;27;20043;-83
2022/08/15 10:16:46;;;;;;;6.13;3.65;;;30.30;59.60;;;;;;4251822;27;20546;-83
2022/08/15 10:18:47;;;;;;;6.25;3.88;;;30.30;59.80;;;;;;4264634;27;20038;-83
2022/08/15 10:21:18;;;;;;;9.48;3.92;;;30.30;60.90;;;;;;4245216;27;20130;-84
2022/08/15 10:23:31;;;;;;;7.00;3.90;;;30.20;60.00;;;;;;4245753;27;20051;-83
2022/08/15 10:25:37;;;;;;;5.28;3.70;;;30.20;60.20;;;;;;4264157;27;20050;-84
2022/08/15 10:27:53;;;;;;;6.43;4.25;;;30.10;60.70;;;;;;4263636;27;20034;-83
2022/08/15 10:30:11;;;;;;;8.15;3.70;;;30.10;60.10;;;;;;4263901;27;20047;-84
2022/08/15 10:32:39;;;;;;;9.77;4.57;;;30.10;59.70;;;;;;4245403;27;20047;-84
2022/08/15 10:34:46;;;;;;;;;;;30.00;59.80;;;;;;4264581;27;20113;-84
2022/08/15 10:37:20;;;;;;;5.78;4.13;;;30.00;60.70;;;;;;4245747;28;19979;-83
2022/08/15 10:39:30;;;;;;;7.50;4.22;;;29.90;60.80;;;;;;4245314;28;20043;-83
2022/08/15 10:41:57;;;;;;;9.73;4.80;;;29.80;60.50;;;;;;4264265;27;20046;-82
2022/08/15 10:44:25;;;;;;;7.05;4.53;;;29.70;60.60;;;;;;4244797;28;20052;-84
2022/08/15 10:46:49;;;;;;;6.07;4.13;;;29.50;59.20;;;;;;4227420;28;20492;-83
2022/08/15 10:49:02;;;;;;;5.78;4.45;;;29.50;59.70;;;;;;4246706;27;20047;-84
2022/08/15 10:51:23;;;;;;;6.50;4.32;;;29.50;60.50;;;;;;4245351;28;20065;-83
2022/08/15 10:53:47;;;;;;;5.95;4.55;;;29.50;59.70;;;;;;4246988;27;20103;-83
2022/08/15 10:55:50;;;;;;;7.10;4.22;;;29.60;60.40;;;;;;4246499;27;20043;-83
2022/08/15 10:58:20;;;;;;;8.55;5.00;;;29.70;60.20;;;;;;4240614;27;20040;-83
2022/08/15 11:00:47;;;;;;;9.50;4.82;;;29.70;58.90;;;;;;4228590;28;20067;-83
2022/08/15 11:02:54;;;;;;;9.02;5.18;;;29.60;59.50;;;;;;4230458;28;20040;-83
2022/08/15 11:05:19;;;;;;;6.60;4.95;;;29.60;60.30;;;;;;4229326;28;20040;-83
2022/08/15 11:07:27;;;;;;;8.88;5.15;;;29.60;60.50;;;;;;4230078;28;20076;-83
2022/08/15 11:09:30;;;;;;;9.55;5.40;;;29.60;60.60;;;;;;4233001;28;20071;-83